Time;durP1;ratioP1;P1;durP2;ratioP2;P2;SDS_P1;SDS_P2;PMS_P1;PMS_P2;Temp;Humidity;BMP_temperature;BMP_pressure;BME280_temperature;BME280_humidity;BME280_pressure;Samples;Min_cycle;Max_cycle;Signal;HPM_P1;HPM_P2
2022/06/29 00:01:20;;;;;;;;;;;;;;;;;;5054864;28;19908;-73
2022/06/29 00:03:46;;;;;;;;;;;;;;;;;;5055109;28;19924;-71
2022/06/29 00:06:12;;;;;;;;;;;;;;;;;;5052727;28;20082;-74
2022/06/29 00:08:38;;;;;;;;;;;;;;;;;;5054515;28;19917;-73
2022/06/29 00:11:04;;;;;;;;;;;;;;;;;;5054888;28;19908;-71
2022/06/29 00:13:30;;;;;;;;;;;;;;;;;;5053387;28;19978;-72
2022/06/29 00:15:56;;;;;;;;;;;;;;;;;;5054541;28;19913;-73
2022/06/29 00:18:22;;;;;;;;;;;;;;;;;;5055142;28;19962;-71
2022/06/29 00:20:48;;;;;;;;;;;;;;;;;;5054447;28;19909;-72
2022/06/29 00:23:14;;;;;;;;;;;;;;;;;;5054430;28;20296;-73
2022/06/29 00:25:40;;;;;;;;;;;;;;;;;;5054417;28;19915;-72
2022/06/29 00:28:06;;;;;;;;;;;;;;;;;;5054634;28;19916;-74
2022/06/29 00:30:32;;;;;;;;;;;;;;;;;;5053033;28;20369;-73
2022/06/29 00:32:58;;;;;;;;;;;;;;;;;;5054257;28;20270;-73
2022/06/29 00:35:24;;;;;;;;;;;;;;;;;;5052885;28;20000;-72
2022/06/29 00:37:50;;;;;;;;;;;;;;;;;;5054498;28;19936;-72
2022/06/29 00:40:16;;;;;;;;;;;;;;;;;;5054141;28;19950;-73
2022/06/29 00:42:42;;;;;;;;;;;;;;;;;;5054121;28;19915;-73
2022/06/29 00:45:08;;;;;;;;;;;;;;;;;;5054075;28;19948;-72
2022/06/29 00:47:34;;;;;;;;;;;;;;;;;;5054000;28;20411;-73
2022/06/29 00:50:00;;;;;;;;;;;;;;;;;;5054003;28;19916;-71
2022/06/29 00:52:26;;;;;;;;;;;;;;;;;;5053841;28;19959;-72
2022/06/29 00:54:52;;;;;;;;;;;;;;;;;;5053881;28;19959;-71
2022/06/29 00:57:18;;;;;;;;;;;;;;;;;;5054158;28;20046;-72
2022/06/29 00:59:44;;;;;;;;;;;;;;;;;;5054116;28;19908;-72
2022/06/29 01:02:10;;;;;;;;;;;;;;;;;;5054362;28;19909;-74
2022/06/29 01:04:36;;;;;;;;;;;;;;;;;;5053771;28;20269;-73
2022/06/29 01:07:01;;;;;;;;;;;;;;;;;;5052378;28;19909;-73
2022/06/29 01:09:27;;;;;;;;;;;;;;;;;;5053316;28;19916;-72
2022/06/29 01:11:53;;;;;;;;;;;;;;;;;;5054176;28;19979;-72
2022/06/29 01:14:19;;;;;;;;;;;;;;;;;;5053959;28;19909;-73
2022/06/29 01:16:46;;;;;;;;;;;;;;;;;;5053604;28;19909;-73
2022/06/29 01:19:11;;;;;;;;;;;;;;;;;;5053623;28;19909;-73
2022/06/29 01:21:37;;;;;;;;;;;;;;;;;;5053906;28;19912;-72
2022/06/29 01:24:03;;;;;;;;;;;;;;;;;;5052330;28;20331;-71
2022/06/29 01:26:29;;;;;;;;;;;;;;;;;;5052310;28;19954;-72
2022/06/29 01:28:55;;;;;;;;;;;;;;;;;;5052261;28;19956;-72
2022/06/29 01:31:21;;;;;;;;;;;;;;;;;;5054017;28;19913;-72
2022/06/29 01:33:47;;;;;;;;;;;;;;;;;;5053511;28;19964;-74
2022/06/29 01:36:13;;;;;;;;;;;;;;;;;;5053495;28;20007;-73
2022/06/29 01:38:39;;;;;;;;;;;;;;;;;;5053969;28;20345;-72
2022/06/29 01:41:04;;;;;;;;;;;;;;;;;;5053668;28;19909;-71
2022/06/29 01:43:31;;;;;;;;;;;;;;;;;;5053379;28;19971;-73
2022/06/29 01:45:57;;;;;;;;;;;;;;;;;;5053403;28;19908;-73
2022/06/29 01:48:23;;;;;;;;;;;;;;;;;;5053332;28;19936;-73
2022/06/29 01:50:49;;;;;;;;;;;;;;;;;;5053366;28;19912;-73
2022/06/29 01:53:15;;;;;;;;;;;;;;;;;;5053535;28;19912;-74
2022/06/29 01:55:40;;;;;;;;;;;;;;;;;;5053245;28;19923;-72
2022/06/29 01:58:06;;;;;;;;;;;;;;;;;;5053522;28;19915;-74
2022/06/29 02:00:32;;;;;;;;;;;;;;;;;;5051941;28;19962;-72
2022/06/29 02:02:58;;;;;;;;;;;;;;;;;;5053463;28;19916;-72
2022/06/29 02:05:24;;;;;;;;;;;;;;;;;;5053102;28;20369;-73
2022/06/29 02:07:50;;;;;;;;;;;;;;;;;;5051662;28;19913;-74
2022/06/29 02:10:16;;;;;;;;;;;;;;;;;;5053736;28;20386;-73
2022/06/29 02:12:42;;;;;;;;;;;;;;;;;;5053319;28;19923;-73
2022/06/29 02:15:08;;;;;;;;;;;;;;;;;;5053427;28;20285;-75
2022/06/29 02:17:34;;;;;;;;;;;;;;;;;;5053373;28;19915;-72
2022/06/29 02:20:00;;;;;;;;;;;;;;;;;;5053068;28;19909;-73
2022/06/29 02:22:26;;;;;;;;;;;;;;;;;;5053070;28;19913;-72
2022/06/29 02:24:52;;;;;;;;;;;;;;;;;;5053291;28;19908;-72
2022/06/29 02:27:18;;;;;;;;;;;;;;;;;;5052985;28;20277;-72
2022/06/29 02:29:44;;;;;;;;;;;;;;;;;;5054258;28;20399;-75
2022/06/29 02:34:54;;;;;;;;;;;;;;;;;;5056822;28;20383;-74
2022/06/29 02:37:21;;;;;;;;;;;;;;;;;;5056737;28;19909;-72
2022/06/29 02:39:47;;;;;;;;;;;;;;;;;;5056426;28;19909;-72
2022/06/29 02:42:13;;;;;;;;;;;;;;;;;;5056391;28;19916;-72
2022/06/29 02:44:39;;;;;;;;;;;;;;;;;;5056615;28;19916;-73
2022/06/29 02:47:04;;;;;;;;;;;;;;;;;;5056287;28;19913;-71
2022/06/29 02:49:30;;;;;;;;;;;;;;;;;;5056739;28;20311;-74
2022/06/29 02:51:56;;;;;;;;;;;;;;;;;;5056136;28;19913;-71
2022/06/29 02:54:22;;;;;;;;;;;;;;;;;;5056425;28;19909;-72
2022/06/29 02:56:48;;;;;;;;;;;;;;;;;;5056114;28;19916;-72
2022/06/29 02:59:14;;;;;;;;;;;;;;;;;;5056084;28;20026;-72
2022/06/29 03:01:40;;;;;;;;;;;;;;;;;;5054778;28;19975;-72
2022/06/29 03:04:06;;;;;;;;;;;;;;;;;;5055993;28;20372;-74
2022/06/29 03:06:32;;;;;;;;;;;;;;;;;;5055778;28;20357;-73
2022/06/29 03:08:58;;;;;;;;;;;;;;;;;;5055893;28;19928;-74
2022/06/29 03:11:24;;;;;;;;;;;;;;;;;;5055743;28;20066;-72
2022/06/29 03:13:50;;;;;;;;;;;;;;;;;;5056102;28;19978;-73
2022/06/29 03:16:15;;;;;;;;;;;;;;;;;;5056041;28;20003;-72
2022/06/29 03:18:41;;;;;;;;;;;;;;;;;;5055987;28;19909;-72
2022/06/29 03:21:07;;;;;;;;;;;;;;;;;;5055646;28;19909;-72
2022/06/29 03:23:33;;;;;;;;;;;;;;;;;;5055623;28;20403;-74
2022/06/29 03:25:59;;;;;;;;;;;;;;;;;;5055840;28;19923;-72
2022/06/29 03:28:25;;;;;;;;;;;;;;;;;;5054222;28;20300;-73
2022/06/29 03:30:51;;;;;;;;;;;;;;;;;;5055715;28;19959;-72
2022/06/29 03:33:17;;;;;;;;;;;;;;;;;;5054079;28;19913;-74
2022/06/29 03:35:42;;;;;;;;;;;;;;;;;;5055396;28;20063;-72
2022/06/29 03:38:08;;;;;;;;;;;;;;;;;;5055617;28;19952;-71
2022/06/29 03:40:34;;;;;;;;;;;;;;;;;;5054875;28;19908;-72
2022/06/29 03:43:00;;;;;;;;;;;;;;;;;;5055461;28;19916;-72
2022/06/29 03:45:26;;;;;;;;;;;;;;;;;;5055207;28;19915;-72
2022/06/29 03:47:52;;;;;;;;;;;;;;;;;;5055481;28;19913;-72
2022/06/29 03:50:18;;;;;;;;;;;;;;;;;;5055122;28;20379;-72
2022/06/29 03:52:44;;;;;;;;;;;;;;;;;;5055023;28;19919;-73
2022/06/29 03:55:10;;;;;;;;;;;;;;;;;;5055050;28;20280;-72
2022/06/29 03:57:35;;;;;;;;;;;;;;;;;;5054991;28;19912;-74
2022/06/29 04:00:01;;;;;;;;;;;;;;;;;;5055256;28;19959;-71
2022/06/29 04:02:27;;;;;;;;;;;;;;;;;;5054864;28;20361;-73
2022/06/29 04:04:53;;;;;;;;;;;;;;;;;;5055250;28;20318;-71
2022/06/29 04:07:19;;;;;;;;;;;;;;;;;;5054644;28;19909;-72
2022/06/29 04:09:45;;;;;;;;;;;;;;;;;;5055241;28;20419;-71
2022/06/29 04:12:11;;;;;;;;;;;;;;;;;;5054607;28;20015;-75
2022/06/29 04:14:37;;;;;;;;;;;;;;;;;;5054915;28;20000;-76
2022/06/29 04:17:03;;;;;;;;;;;;;;;;;;5054600;28;19912;-73
2022/06/29 04:19:29;;;;;;;;;;;;;;;;;;5055100;28;19991;-73
2022/06/29 04:21:54;;;;;;;;;;;;;;;;;;5054464;28;19915;-73
2022/06/29 04:24:20;;;;;;;;;;;;;;;;;;5053199;28;19908;-72
2022/06/29 04:26:46;;;;;;;;;;;;;;;;;;5054421;28;19909;-72
2022/06/29 04:29:12;;;;;;;;;;;;;;;;;;5054380;28;19909;-72
2022/06/29 04:31:38;;;;;;;;;;;;;;;;;;5054276;28;20381;-72
2022/06/29 04:34:04;;;;;;;;;;;;;;;;;;5054799;28;20359;-71
2022/06/29 04:36:30;;;;;;;;;;;;;;;;;;5054236;28;20357;-73
2022/06/29 04:38:56;;;;;;;;;;;;;;;;;;5054186;28;19909;-71
2022/06/29 04:41:22;;;;;;;;;;;;;;;;;;5054447;28;20003;-72
2022/06/29 04:43:48;;;;;;;;;;;;;;;;;;5054387;28;20361;-74
2022/06/29 04:46:19;;;;;;;;;;;;;;;;;;5054337;28;19919;-72
2022/06/29 04:48:45;;;;;;;;;;;;;;;;;;5054316;28;19909;-73
2022/06/29 04:51:11;;;;;;;;;;;;;;;;;;5053925;28;20333;-72
2022/06/29 04:53:37;;;;;;;;;;;;;;;;;;5053927;28;19909;-73
2022/06/29 04:56:03;;;;;;;;;;;;;;;;;;5053936;28;19959;-71
2022/06/29 04:58:29;;;;;;;;;;;;;;;;;;5054186;28;19909;-72
2022/06/29 05:00:55;;;;;;;;;;;;;;;;;;5053816;28;19909;-73
2022/06/29 05:03:21;;;;;;;;;;;;;;;;;;5053823;28;19967;-74
2022/06/29 05:05:50;;;;;;;;;;;;;;;;;;5054305;28;19909;-72
2022/06/29 05:08:16;;;;;;;;;;;;;;;;;;5053587;28;19917;-72
2022/06/29 05:10:41;;;;;;;;;;;;;;;;;;5052481;28;20003;-72
2022/06/29 05:13:09;;;;;;;;;;;;;;;;;;5053629;28;19917;-72
2022/06/29 05:15:35;;;;;;;;;;;;;;;;;;5053688;28;19955;-72
2022/06/29 05:18:01;;;;;;;;;;;;;;;;;;5053675;28;19913;-72
2022/06/29 05:20:26;;;;;;;;;;;;;;;;;;5053933;28;19909;-72
2022/06/29 05:22:52;;;;;;;;;;;;;;;;;;5053878;28;19916;-73
2022/06/29 05:25:18;;;;;;;;;;;;;;;;;;5054101;28;19909;-72
2022/06/29 05:27:44;;;;;;;;;;;;;;;;;;5053868;28;19909;-73
2022/06/29 05:30:10;;;;;;;;;;;;;;;;;;5054086;28;19909;-73
2022/06/29 05:32:36;;;;;;;;;;;;;;;;;;5053473;28;19920;-72
2022/06/29 05:35:02;;;;;;;;;;;;;;;;;;5053530;28;19913;-73
2022/06/29 05:37:28;;;;;;;;;;;;;;;;;;5052185;28;19908;-73
2022/06/29 05:39:54;;;;;;;;;;;;;;;;;;5053469;28;19913;-72
2022/06/29 05:42:19;;;;;;;;;;;;;;;;;;5053992;28;19963;-74
2022/06/29 05:44:45;;;;;;;;;;;;;;;;;;5053407;28;19909;-72
2022/06/29 05:47:11;;;;;;;;;;;;;;;;;;5053662;28;20000;-73
2022/06/29 05:49:37;;;;;;;;;;;;;;;;;;5053309;28;19996;-72
2022/06/29 05:52:03;;;;;;;;;;;;;;;;;;5053523;28;19924;-72
2022/06/29 05:54:29;;;;;;;;;;;;;;;;;;5053313;28;20285;-72
2022/06/29 05:56:55;;;;;;;;;;;;;;;;;;5053867;28;19909;-73
2022/06/29 05:59:21;;;;;;;;;;;;;;;;;;5053254;28;19909;-71
2022/06/29 06:01:47;;;;;;;;;;;;;;;;;;5053500;28;19916;-73
2022/06/29 06:04:13;;;;;;;;;;;;;;;;;;5054002;28;19913;-73
2022/06/29 06:06:38;;;;;;;;;;;;;;;;;;5057041;28;19991;-72
2022/06/29 06:09:04;;;;;;;;;;;;;;;;;;5056984;28;19917;-73
2022/06/29 06:11:30;;;;;;;;;;;;;;;;;;5056948;28;19916;-74
2022/06/29 06:13:56;;;;;;;;;;;;;;;;;;5057234;28;19909;-71
2022/06/29 06:16:22;;;;;;;;;;;;;;;;;;5056843;28;19909;-71
2022/06/29 06:18:48;;;;;;;;;;;;;;;;;;5056871;28;19915;-74
2022/06/29 06:21:15;;;;;;;;;;;;;;;;;;5056774;28;19913;-73
2022/06/29 06:23:41;;;;;;;;;;;;;;;;;;5055460;28;19908;-73
2022/06/29 06:26:06;;;;;;;;;;;;;;;;;;5056764;28;19915;-71
2022/06/29 06:28:32;;;;;;;;;;;;;;;;;;5056667;28;19908;-75
2022/06/29 06:30:58;;;;;;;;;;;;;;;;;;5056643;28;19909;-72
2022/06/29 06:33:24;;;;;;;;;;;;;;;;;;5056806;28;19913;-72
2022/06/29 06:35:50;;;;;;;;;;;;;;;;;;5056801;28;19959;-72
2022/06/29 06:38:16;;;;;;;;;;;;;;;;;;5056498;28;19909;-73
2022/06/29 06:43:26;;;;;;;;;;;;;;;;;;5056716;28;19971;-74
2022/06/29 06:45:52;;;;;;;;;;;;;;;;;;5056364;28;20357;-75
2022/06/29 06:48:18;;;;;;;;;;;;;;;;;;5056620;28;19995;-74
2022/06/29 06:50:44;;;;;;;;;;;;;;;;;;5054978;28;19912;-73
2022/06/29 06:53:10;;;;;;;;;;;;;;;;;;5056456;28;19913;-75
2022/06/29 06:55:36;;;;;;;;;;;;;;;;;;5056152;28;20380;-78
2022/06/29 06:58:01;;;;;;;;;;;;;;;;;;5056214;28;19909;-79
2022/06/29 07:00:27;;;;;;;;;;;;;;;;;;5054798;28;20319;-77
2022/06/29 07:02:53;;;;;;;;;;;;;;;;;;5054760;28;19938;-77
2022/06/29 07:05:19;;;;;;;;;;;;;;;;;;5056110;28;19917;-76
2022/06/29 07:07:45;;;;;;;;;;;;;;;;;;5056203;28;19991;-78
2022/06/29 07:10:11;;;;;;;;;;;;;;;;;;5056201;28;19913;-79
2022/06/29 07:12:37;;;;;;;;;;;;;;;;;;5055761;28;19917;-76
2022/06/29 07:15:03;;;;;;;;;;;;;;;;;;5055648;28;20051;-78
2022/06/29 07:17:29;;;;;;;;;;;;;;;;;;5054464;28;19941;-75
2022/06/29 07:19:55;;;;;;;;;;;;;;;;;;5054458;28;19912;-77
2022/06/29 07:22:20;;;;;;;;;;;;;;;;;;5055726;28;19909;-76
2022/06/29 07:24:46;;;;;;;;;;;;;;;;;;5055963;28;20003;-78
2022/06/29 07:27:12;;;;;;;;;;;;;;;;;;5055595;28;20373;-78
2022/06/29 07:29:38;;;;;;;;;;;;;;;;;;5056142;28;20361;-76
2022/06/29 07:32:04;;;;;;;;;;;;;;;;;;5055385;28;19956;-76
2022/06/29 07:34:30;;;;;;;;;;;;;;;;;;5055413;28;19915;-78
2022/06/29 07:36:56;;;;;;;;;;;;;;;;;;5054116;28;19909;-79
2022/06/29 07:39:22;;;;;;;;;;;;;;;;;;5055601;28;19909;-76
2022/06/29 07:41:48;;;;;;;;;;;;;;;;;;5055283;28;19913;-79
2022/06/29 07:44:14;;;;;;;;;;;;;;;;;;5055277;28;20266;-75
2022/06/29 07:46:40;;;;;;;;;;;;;;;;;;5053919;28;19913;-74
2022/06/29 07:49:05;;;;;;;;;;;;;;;;;;5055716;28;19986;-74
2022/06/29 07:51:32;;;;;;;;;;;;;;;;;;5055065;28;19973;-74
2022/06/29 07:53:58;;;;;;;;;;;;;;;;;;5053599;28;19916;-74
2022/06/29 07:56:25;;;;;;;;;;;;;;;;;;5055046;28;19909;-74
2022/06/29 07:58:51;;;;;;;;;;;;;;;;;;5055276;28;19958;-75
2022/06/29 08:01:17;;;;;;;;;;;;;;;;;;5053633;28;19913;-74
2022/06/29 08:03:43;;;;;;;;;;;;;;;;;;5054902;28;20373;-75
2022/06/29 08:06:10;;;;;;;;;;;;;;;;;;5054778;28;19948;-75
2022/06/29 08:08:35;;;;;;;;;;;;;;;;;;5053289;28;19922;-75
2022/06/29 08:11:02;;;;;;;;;;;;;;;;;;5055027;28;19958;-74
2022/06/29 08:13:28;;;;;;;;;;;;;;;;;;5054609;28;19975;-75
2022/06/29 08:15:54;;;;;;;;;;;;;;;;;;5054583;28;19968;-74
2022/06/29 08:18:20;;;;;;;;;;;;;;;;;;5054848;28;19958;-74
2022/06/29 08:20:45;;;;;;;;;;;;;;;;;;5053255;28;20285;-74
2022/06/29 08:23:11;;;;;;;;;;;;;;;;;;5054792;28;19909;-75
2022/06/29 08:25:37;;;;;;;;;;;;;;;;;;5053213;28;20333;-74
2022/06/29 08:28:05;;;;;;;;;;;;;;;;;;5052527;28;20312;-74
2022/06/29 08:30:31;;;;;;;;;;;;;;;;;;5053103;28;19979;-74
2022/06/29 08:32:57;;;;;;;;;;;;;;;;;;5054248;28;19917;-74
2022/06/29 08:35:23;;;;;;;;;;;;;;;;;;5054863;28;19913;-76
2022/06/29 08:37:49;;;;;;;;;;;;;;;;;;5054273;28;19909;-74
2022/06/29 08:40:15;;;;;;;;;;;;;;;;;;5054219;28;19909;-75
2022/06/29 08:42:41;;;;;;;;;;;;;;;;;;5054457;28;19959;-74
2022/06/29 08:45:07;;;;;;;;;;;;;;;;;;5052885;28;19909;-76
2022/06/29 08:47:33;;;;;;;;;;;;;;;;;;5054329;28;19909;-74
2022/06/29 08:49:59;;;;;;;;;;;;;;;;;;5054039;28;19958;-76
2022/06/29 08:52:25;;;;;;;;;;;;;;;;;;5053919;28;19913;-75
2022/06/29 08:54:52;;;;;;;;;;;;;;;;;;5052724;28;19917;-76
2022/06/29 08:57:18;;;;;;;;;;;;;;;;;;5053932;28;19909;-75
2022/06/29 08:59:43;;;;;;;;;;;;;;;;;;5054157;28;19913;-75
2022/06/29 09:02:09;;;;;;;;;;;;;;;;;;5052578;28;19916;-78
2022/06/29 09:04:35;;;;;;;;;;;;;;;;;;5053824;28;19909;-77
2022/06/29 09:07:01;;;;;;;;;;;;;;;;;;5053748;28;19936;-76
2022/06/29 09:09:27;;;;;;;;;;;;;;;;;;5053404;28;19960;-76
2022/06/29 09:11:53;;;;;;;;;;;;;;;;;;5052398;28;20383;-78
2022/06/29 09:14:19;;;;;;;;;;;;;;;;;;5053727;28;19909;-77
2022/06/29 09:16:45;;;;;;;;;;;;;;;;;;5054001;28;19912;-75
2022/06/29 09:19:11;;;;;;;;;;;;;;;;;;5053686;28;19909;-76
2022/06/29 09:21:37;;;;;;;;;;;;;;;;;;5053874;28;19909;-78
2022/06/29 09:24:02;;;;;;;;;;;;;;;;;;5053852;28;19948;-78
2022/06/29 09:26:28;;;;;;;;;;;;;;;;;;5053575;28;19962;-77
2022/06/29 09:28:54;;;;;;;;;;;;;;;;;;5054082;28;19916;-79
2022/06/29 09:31:20;;;;;;;;;;;;;;;;;;5053398;28;19917;-75
2022/06/29 09:33:46;;;;;;;;;;;;;;;;;;5053764;28;19916;-74
2022/06/29 09:36:17;;;;;;;;;;;;;;;;;;5053466;28;20357;-75
2022/06/29 09:38:43;;;;;;;;;;;;;;;;;;5054031;28;19909;-75
2022/06/29 09:41:09;;;;;;;;;;;;;;;;;;5057310;28;19919;-76
2022/06/29 09:43:35;;;;;;;;;;;;;;;;;;5058092;28;20349;-76
2022/06/29 09:46:01;;;;;;;;;;;;;;;;;;5057488;28;19916;-79
2022/06/29 09:48:27;;;;;;;;;;;;;;;;;;5057451;28;19952;-79
2022/06/29 09:50:53;;;;;;;;;;;;;;;;;;5057640;28;19912;-75
2022/06/29 09:53:18;;;;;;;;;;;;;;;;;;5057593;28;19959;-78
2022/06/29 09:55:44;;;;;;;;;;;;;;;;;;5057324;28;19916;-77
2022/06/29 09:58:10;;;;;;;;;;;;;;;;;;5057818;28;19909;-78
2022/06/29 10:03:20;;;;;;;;;;;;;;;;;;5057213;28;19916;-77
2022/06/29 10:05:58;;;;;;;;;;;;;;;;;;5057052;28;19909;-76
2022/06/29 10:08:24;;;;;;;;;;;;;;;;;;5055555;28;19916;-75
2022/06/29 10:10:51;;;;;;;;;;;;;;;;;;5057033;28;19916;-77
2022/06/29 10:16:02;;;;;;;;;;;;;;;;;;5056739;28;19916;-79
2022/06/29 10:18:28;;;;;;;;;;;;;;;;;;5055688;28;19909;-75
2022/06/29 10:20:54;;;;;;;;;;;;;;;;;;5057400;28;20276;-76
2022/06/29 10:23:20;;;;;;;;;;;;;;;;;;5057111;28;19959;-76
2022/06/29 10:25:46;;;;;;;;;;;;;;;;;;5056741;28;19909;-76
2022/06/29 10:28:15;;;;;;;;;;;;;;;;;;5056989;28;19959;-78
2022/06/29 10:30:41;;;;;;;;;;;;;;;;;;5056927;28;19940;-76
2022/06/29 10:33:07;;;;;;;;;;;;;;;;;;5057092;28;19959;-77
2022/06/29 10:35:33;;;;;;;;;;;;;;;;;;5056579;28;19912;-76
2022/06/29 10:37:59;;;;;;;;;;;;;;;;;;5056531;28;19913;-76
2022/06/29 10:40:27;;;;;;;;;;;;;;;;;;5056514;28;20003;-75
2022/06/29 10:43:08;;;;;;;;;;;;;;;;;;5056447;28;19975;-76
2022/06/29 10:45:34;;;;;;;;;;;;;;;;;;5056977;28;19913;-76
2022/06/29 10:48:03;;;;;;;;;;;;;;;;;;5056352;28;19916;-75
2022/06/29 10:50:29;;;;;;;;;;;;;;;;;;5056024;28;19909;-74
2022/06/29 10:52:55;;;;;;;;;;;;;;;;;;5056155;28;20007;-75
2022/06/29 10:55:21;;;;;;;;;;;;;;;;;;5054977;28;19987;-78
2022/06/29 10:57:47;;;;;;;;;;;;;;;;;;5056216;28;19915;-78
2022/06/29 11:00:13;;;;;;;;;;;;;;;;;;5056389;28;20016;-76
2022/06/29 11:02:39;;;;;;;;;;;;;;;;;;5056005;28;19916;-74
2022/06/29 11:05:05;;;;;;;;;;;;;;;;;;5056421;28;20259;-75
2022/06/29 11:13:00;;;;;;;;;;;;;;;;;;5055610;28;20400;-77
2022/06/29 11:18:07;;;;;;;;;;;;;;;;;;5056204;28;19964;-77
2022/06/29 11:20:33;;;;;;;;;;;;;;;;;;5057401;28;19975;-75
2022/06/29 11:22:59;;;;;;;;;;;;;;;;;;5059172;28;19912;-75
2022/06/29 11:25:25;;;;;;;;;;;;;;;;;;5056436;28;19935;-75
2022/06/29 11:27:51;;;;;;;;;;;;;;;;;;5055878;28;19959;-77
2022/06/29 11:30:17;;;;;;;;;;;;;;;;;;5055583;28;19912;-76
2022/06/29 11:32:43;;;;;;;;;;;;;;;;;;5055718;28;20264;-78
2022/06/29 11:35:09;;;;;;;;;;;;;;;;;;5055498;28;19909;-74
2022/06/29 11:37:35;;;;;;;;;;;;;;;;;;5054157;28;19909;-76
2022/06/29 11:40:01;;;;;;;;;;;;;;;;;;5054093;28;20039;-78
2022/06/29 11:45:12;;;;;;;;;;;;;;;;;;5055027;28;20292;-76
2022/06/29 11:47:37;;;;;;;;;;;;;;;;;;5055512;28;19909;-74
2022/06/29 11:50:04;;;;;;;;;;;;;;;;;;5055156;28;19950;-75
2022/06/29 11:52:29;;;;;;;;;;;;;;;;;;5055331;28;20316;-77
2022/06/29 11:54:57;;;;;;;;;;;;;;;;;;5055050;28;19916;-76
2022/06/29 11:57:22;;;;;;;;;;;;;;;;;;5055045;28;19909;-78
2022/06/29 11:59:49;;;;;;;;;;;;;;;;;;5054978;28;19916;-75
2022/06/29 12:02:15;;;;;;;;;;;;;;;;;;5054068;28;20012;-75
2022/06/29 12:04:41;;;;;;;;;;;;;;;;;;5054875;28;19916;-77
2022/06/29 12:07:07;;;;;;;;;;;;;;;;;;5054741;28;19913;-76
2022/06/29 12:09:33;;;;;;;;;;;;;;;;;;5054385;28;20004;-77
2022/06/29 12:11:59;;;;;;;;;;;;;;;;;;5055238;28;19967;-74
2022/06/29 12:14:25;;;;;;;;;;;;;;;;;;5054664;28;19915;-75
2022/06/29 12:16:50;;;;;;;;;;;;;;;;;;5055201;28;19948;-77
2022/06/29 12:19:16;;;;;;;;;;;;;;;;;;5053318;28;19908;-77
2022/06/29 12:21:43;;;;;;;;;;;;;;;;;;5053273;28;19940;-75
2022/06/29 12:24:09;;;;;;;;;;;;;;;;;;5054815;28;19909;-78
2022/06/29 12:26:35;;;;;;;;;;;;;;;;;;5054499;28;19959;-78
2022/06/29 12:29:01;;;;;;;;;;;;;;;;;;5055020;28;19908;-77
2022/06/29 12:31:27;;;;;;;;;;;;;;;;;;5054354;28;19909;-74
2022/06/29 12:33:53;;;;;;;;;;;;;;;;;;5054382;28;20316;-77
2022/06/29 12:36:19;;;;;;;;;;;;;;;;;;5054357;28;19916;-77
2022/06/29 12:38:45;;;;;;;;;;;;;;;;;;5052965;28;19909;-77
2022/06/29 12:41:10;;;;;;;;;;;;;;;;;;5052956;28;19909;-78
2022/06/29 12:43:36;;;;;;;;;;;;;;;;;;5054496;28;19932;-77
2022/06/29 12:46:02;;;;;;;;;;;;;;;;;;5054444;28;20376;-75
2022/06/29 12:48:28;;;;;;;;;;;;;;;;;;5054134;28;19944;-77
2022/06/29 12:50:54;;;;;;;;;;;;;;;;;;5054329;28;19913;-75
2022/06/29 12:53:20;;;;;;;;;;;;;;;;;;5053947;28;20018;-79
2022/06/29 12:55:46;;;;;;;;;;;;;;;;;;5052695;28;19908;-75
2022/06/29 12:58:12;;;;;;;;;;;;;;;;;;5054238;28;19948;-77
2022/06/29 13:00:38;;;;;;;;;;;;;;;;;;5052613;28;19916;-76
2022/06/29 13:03:04;;;;;;;;;;;;;;;;;;5053879;28;19916;-73
2022/06/29 13:05:30;;;;;;;;;;;;;;;;;;5053789;28;20311;-76
2022/06/29 13:07:56;;;;;;;;;;;;;;;;;;5054035;28;19919;-78
2022/06/29 13:10:22;;;;;;;;;;;;;;;;;;5054105;28;19916;-76
2022/06/29 13:12:48;;;;;;;;;;;;;;;;;;5053536;28;20292;-77
2022/06/29 13:15:14;;;;;;;;;;;;;;;;;;5053649;28;19913;-76
2022/06/29 13:17:39;;;;;;;;;;;;;;;;;;5053980;28;20319;-75
2022/06/29 13:20:09;;;;;;;;;;;;;;;;;;5053643;28;20269;-75
2022/06/29 13:22:36;;;;;;;;;;;;;;;;;;5052403;28;19916;-76
2022/06/29 13:25:01;;;;;;;;;;;;;;;;;;5053596;28;19908;-77
2022/06/29 13:27:27;;;;;;;;;;;;;;;;;;5053595;28;19916;-78
2022/06/29 13:29:53;;;;;;;;;;;;;;;;;;5053844;28;20316;-75
2022/06/29 13:32:19;;;;;;;;;;;;;;;;;;5053417;28;19912;-76
2022/06/29 13:34:46;;;;;;;;;;;;;;;;;;5052234;28;19909;-78
2022/06/29 13:37:12;;;;;;;;;;;;;;;;;;5054061;28;19954;-77
2022/06/29 13:39:37;;;;;;;;;;;;;;;;;;5053458;28;20007;-75
2022/06/29 13:42:03;;;;;;;;;;;;;;;;;;5053520;28;19912;-75
2022/06/29 13:44:29;;;;;;;;;;;;;;;;;;5053746;28;19999;-76
2022/06/29 13:46:55;;;;;;;;;;;;;;;;;;5053647;28;19909;-77
2022/06/29 13:49:21;;;;;;;;;;;;;;;;;;5053359;28;20272;-77
2022/06/29 13:51:48;;;;;;;;;;;;;;;;;;5053290;28;19919;-76
2022/06/29 13:54:14;;;;;;;;;;;;;;;;;;5053671;28;19959;-75
2022/06/29 13:56:40;;;;;;;;;;;;;;;;;;5053298;28;20373;-76
2022/06/29 13:59:06;;;;;;;;;;;;;;;;;;5053292;28;19909;-79
2022/06/29 14:01:32;;;;;;;;;;;;;;;;;;5053518;28;19909;-75
2022/06/29 14:03:58;;;;;;;;;;;;;;;;;;5051970;28;19909;-76
2022/06/29 14:06:24;;;;;;;;;;;;;;;;;;5053431;28;20050;-78
2022/06/29 14:08:49;;;;;;;;;;;;;;;;;;5052976;28;19916;-76
2022/06/29 14:11:16;;;;;;;;;;;;;;;;;;5053176;28;19909;-76
2022/06/29 14:13:41;;;;;;;;;;;;;;;;;;5053075;28;19916;-77
2022/06/29 14:16:07;;;;;;;;;;;;;;;;;;5053441;28;19909;-78
2022/06/29 14:18:33;;;;;;;;;;;;;;;;;;5053397;28;20376;-75
2022/06/29 14:20:59;;;;;;;;;;;;;;;;;;5053133;28;19952;-76
2022/06/29 14:23:25;;;;;;;;;;;;;;;;;;5053656;28;20299;-77
2022/06/29 14:25:51;;;;;;;;;;;;;;;;;;5054568;28;19916;-76
2022/06/29 14:28:17;;;;;;;;;;;;;;;;;;5056736;28;20002;-74
2022/06/29 14:30:43;;;;;;;;;;;;;;;;;;5057292;28;20245;-78
2022/06/29 14:33:09;;;;;;;;;;;;;;;;;;5056844;28;19912;-77
2022/06/29 14:35:35;;;;;;;;;;;;;;;;;;5057179;28;19995;-75
2022/06/29 14:38:03;;;;;;;;;;;;;;;;;;5055270;28;19909;-76
2022/06/29 14:40:29;;;;;;;;;;;;;;;;;;5056532;28;19913;-75
2022/06/29 14:42:55;;;;;;;;;;;;;;;;;;5056738;28;20352;-76
2022/06/29 14:45:21;;;;;;;;;;;;;;;;;;5056680;28;19908;-77
2022/06/29 14:47:48;;;;;;;;;;;;;;;;;;5056340;28;19916;-76
2022/06/29 14:50:14;;;;;;;;;;;;;;;;;;5055038;28;20302;-75
2022/06/29 14:52:40;;;;;;;;;;;;;;;;;;5056777;28;19917;-74
2022/06/29 14:55:06;;;;;;;;;;;;;;;;;;5054898;28;19908;-75
2022/06/29 14:57:32;;;;;;;;;;;;;;;;;;5056212;28;20284;-78
2022/06/29 14:59:58;;;;;;;;;;;;;;;;;;5054824;28;20008;-75
2022/06/29 15:02:24;;;;;;;;;;;;;;;;;;5056375;28;19914;-74
2022/06/29 15:04:50;;;;;;;;;;;;;;;;;;5055975;28;19908;-74
2022/06/29 15:07:16;;;;;;;;;;;;;;;;;;5056005;28;19956;-76
2022/06/29 15:09:42;;;;;;;;;;;;;;;;;;5055848;28;19927;-76
2022/06/29 15:12:07;;;;;;;;;;;;;;;;;;5056400;28;19924;-74
2022/06/29 15:14:33;;;;;;;;;;;;;;;;;;5055848;28;20005;-76
2022/06/29 15:16:59;;;;;;;;;;;;;;;;;;5056144;28;19909;-75
2022/06/29 15:19:25;;;;;;;;;;;;;;;;;;5058160;28;19915;-76
2022/06/29 15:21:51;;;;;;;;;;;;;;;;;;5058339;28;19909;-75
2022/06/29 15:24:17;;;;;;;;;;;;;;;;;;5056781;28;19909;-77
2022/06/29 15:26:43;;;;;;;;;;;;;;;;;;5054390;28;19995;-75
2022/06/29 15:29:09;;;;;;;;;;;;;;;;;;5055624;28;19935;-75
2022/06/29 15:31:35;;;;;;;;;;;;;;;;;;5055529;28;19909;-74
2022/06/29 15:39:30;;;;;;;;;;;;;;;;;;5055177;28;19916;-74
2022/06/29 15:41:56;;;;;;;;;;;;;;;;;;5055406;28;19913;-77
2022/06/29 15:44:21;;;;;;;;;;;;;;;;;;5055321;28;20426;-77
2022/06/29 15:46:48;;;;;;;;;;;;;;;;;;5055313;28;20042;-75
2022/06/29 15:49:17;;;;;;;;;;;;;;;;;;5055758;28;19962;-78
2022/06/29 15:51:43;;;;;;;;;;;;;;;;;;5055090;28;19941;-75
2022/06/29 15:56:53;;;;;;;;;;;;;;;;;;5054858;28;20399;-74
2022/06/29 15:59:19;;;;;;;;;;;;;;;;;;5055065;28;19908;-78
2022/06/29 16:01:45;;;;;;;;;;;;;;;;;;5055233;28;19958;-75
2022/06/29 16:04:11;;;;;;;;;;;;;;;;;;5054933;28;20365;-78
2022/06/29 16:06:37;;;;;;;;;;;;;;;;;;5053595;28;19941;-75
2022/06/29 16:09:03;;;;;;;;;;;;;;;;;;5054762;28;19999;-76
2022/06/29 16:12:06;;;;;;;;;;;;;;;;;;5055287;28;19916;-76
2022/06/29 16:14:15;;;;;;;;;;;;;;;;;;5054577;28;19962;-74
2022/06/29 16:16:41;;;;;;;;;;;;;;;;;;5054985;28;19909;-75
2022/06/29 16:19:08;;;;;;;;;;;;;;;;;;5054670;28;19996;-76
2022/06/29 16:21:35;;;;;;;;;;;;;;;;;;5054601;28;19913;-75
2022/06/29 16:24:01;;;;;;;;;;;;;;;;;;5053116;28;19909;-74
2022/06/29 16:26:27;;;;;;;;;;;;;;;;;;5054571;28;19916;-77
2022/06/29 16:28:52;;;;;;;;;;;;;;;;;;5053226;28;20261;-76
2022/06/29 16:31:18;;;;;;;;;;;;;;;;;;5053122;28;19936;-76
2022/06/29 16:33:46;;;;;;;;;;;;;;;;;;5053599;28;20252;-78
2022/06/29 16:36:12;;;;;;;;;;;;;;;;;;5054337;28;19909;-74
2022/06/29 16:38:38;;;;;;;;;;;;;;;;;;5054610;28;19909;-76
2022/06/29 16:41:04;;;;;;;;;;;;;;;;;;5054558;28;19920;-75
2022/06/29 16:43:30;;;;;;;;;;;;;;;;;;5054257;28;19951;-74
2022/06/29 16:51:07;;;;;;;;;;;;;;;;;;3239395;26;19977;-75
2022/06/29 16:53:33;;;;;;;;;;;;;;;;;;5072737;28;20365;-77
2022/06/29 16:55:59;;;;;;;;;;;;;;;;;;5074628;28;19908;-73
2022/06/29 16:58:25;;;;;;;;;;;;;;;;;;5072721;28;19912;-77
2022/06/29 17:00:51;;;;;;;;;;;;;;;;;;5074524;28;19908;-72
2022/06/29 17:03:17;;;;;;;;;;;;;;;;;;5073977;28;19916;-71
2022/06/29 17:05:43;;;;;;;;;;;;;;;;;;5074225;28;19908;-75
2022/06/29 17:08:09;;;;;;;;;;;;;;;;;;5073854;28;19916;-77
2022/06/29 17:10:35;;;;;;;;;;;;;;;;;;5074412;28;20031;-74
2022/06/29 17:13:01;;;;;;;;;;;;;;;;;;5073744;28;20411;-78